sensor_id;sensor_type;location;lat;lon;timestamp;pressure;altitude;pressure_sealevel;temperature;humidity
12949;BME280;6539;49.476;8.484;2024-02-23T00:02:28;98340.38;;;9.11;73.62
12949;BME280;6539;49.476;8.484;2024-02-23T00:05:17;98359.53;;;9.11;73.82
12949;BME280;6539;49.476;8.484;2024-02-23T00:08:06;98372.69;;;9.04;74.21
12949;BME280;6539;49.476;8.484;2024-02-23T00:10:52;98368.56;;;8.99;75.24
12949;BME280;6539;49.476;8.484;2024-02-23T00:13:38;98402.06;;;8.91;76.93
12949;BME280;6539;49.476;8.484;2024-02-23T00:16:25;98380.03;;;8.73;78.06
12949;BME280;6539;49.476;8.484;2024-02-23T00:19:13;98391.66;;;8.64;79.65
12949;BME280;6539;49.476;8.484;2024-02-23T00:22:02;98395.72;;;8.60;80.54
12949;BME280;6539;49.476;8.484;2024-02-23T00:24:52;98386.66;;;8.37;81.99
12949;BME280;6539;49.476;8.484;2024-02-23T00:27:39;98403.25;;;8.18;82.56
12949;BME280;6539;49.476;8.484;2024-02-23T00:30:27;98400.19;;;8.16;82.93
12949;BME280;6539;49.476;8.484;2024-02-23T00:33:14;98392.34;;;8.05;81.80
12949;BME280;6539;49.476;8.484;2024-02-23T00:36:00;98389.16;;;7.94;81.25
12949;BME280;6539;49.476;8.484;2024-02-23T00:38:46;98409.50;;;7.93;82.46
12949;BME280;6539;49.476;8.484;2024-02-23T00:41:33;98413.66;;;7.98;82.47
12949;BME280;6539;49.476;8.484;2024-02-23T00:44:19;98414.50;;;7.95;82.31
12949;BME280;6539;49.476;8.484;2024-02-23T00:47:07;98419.13;;;7.98;82.07
12949;BME280;6539;49.476;8.484;2024-02-23T00:49:53;98433.19;;;7.96;81.87
12949;BME280;6539;49.476;8.484;2024-02-23T00:52:40;98429.34;;;7.94;82.49
12949;BME280;6539;49.476;8.484;2024-02-23T00:55:29;98430.13;;;7.94;81.74
12949;BME280;6539;49.476;8.484;2024-02-23T00:58:15;98424.00;;;7.90;81.19
12949;BME280;6539;49.476;8.484;2024-02-23T01:01:01;98440.41;;;7.90;80.78
12949;BME280;6539;49.476;8.484;2024-02-23T01:03:50;98425.63;;;7.88;80.81
12949;BME280;6539;49.476;8.484;2024-02-23T01:06:36;98429.25;;;7.85;80.08
12949;BME280;6539;49.476;8.484;2024-02-23T01:09:22;98422.25;;;7.84;80.12
12949;BME280;6539;49.476;8.484;2024-02-23T01:12:10;98415.59;;;7.85;79.66
12949;BME280;6539;49.476;8.484;2024-02-23T01:14:56;98431.09;;;7.88;78.78
12949;BME280;6539;49.476;8.484;2024-02-23T01:17:45;98448.25;;;7.88;78.78
12949;BME280;6539;49.476;8.484;2024-02-23T01:20:34;98455.28;;;7.89;78.42
12949;BME280;6539;49.476;8.484;2024-02-23T01:23:20;98461.47;;;7.90;78.58
12949;BME280;6539;49.476;8.484;2024-02-23T01:26:09;98474.28;;;7.93;77.88
12949;BME280;6539;49.476;8.484;2024-02-23T01:28:55;98488.59;;;7.97;77.27
12949;BME280;6539;49.476;8.484;2024-02-23T01:31:41;98502.25;;;7.97;77.46
12949;BME280;6539;49.476;8.484;2024-02-23T01:34:27;98499.00;;;8.02;76.30
12949;BME280;6539;49.476;8.484;2024-02-23T01:37:13;98538.13;;;8.11;76.16
12949;BME280;6539;49.476;8.484;2024-02-23T01:40:03;98577.59;;;8.10;77.88
12949;BME280;6539;49.476;8.484;2024-02-23T01:43:03;98579.34;;;7.59;79.28
12949;BME280;6539;49.476;8.484;2024-02-23T01:45:50;98587.75;;;7.36;81.53
12949;BME280;6539;49.476;8.484;2024-02-23T01:48:38;98582.97;;;6.92;82.84
12949;BME280;6539;49.476;8.484;2024-02-23T01:51:27;98583.38;;;6.90;84.22
12949;BME280;6539;49.476;8.484;2024-02-23T01:54:13;98594.75;;;6.69;84.16
12949;BME280;6539;49.476;8.484;2024-02-23T01:57:00;98598.41;;;6.63;84.85
12949;BME280;6539;49.476;8.484;2024-02-23T01:59:46;98595.81;;;6.56;84.76
12949;BME280;6539;49.476;8.484;2024-02-23T02:02:35;98599.34;;;6.37;85.17
12949;BME280;6539;49.476;8.484;2024-02-23T02:05:22;98599.53;;;6.30;86.20
12949;BME280;6539;49.476;8.484;2024-02-23T02:08:11;98586.25;;;6.32;87.13
12949;BME280;6539;49.476;8.484;2024-02-23T02:10:59;98577.56;;;6.37;87.65
12949;BME280;6539;49.476;8.484;2024-02-23T02:13:45;98583.69;;;6.41;87.17
12949;BME280;6539;49.476;8.484;2024-02-23T02:16:34;98584.00;;;6.27;87.91
12949;BME280;6539;49.476;8.484;2024-02-23T02:19:20;98578.56;;;6.27;88.08
12949;BME280;6539;49.476;8.484;2024-02-23T02:22:11;98564.09;;;6.30;88.25
12949;BME280;6539;49.476;8.484;2024-02-23T02:24:57;98568.59;;;6.36;87.63
12949;BME280;6539;49.476;8.484;2024-02-23T02:27:46;98570.50;;;6.39;87.91
12949;BME280;6539;49.476;8.484;2024-02-23T02:30:34;98581.75;;;6.41;88.55
12949;BME280;6539;49.476;8.484;2024-02-23T02:33:21;98568.59;;;6.36;88.98
12949;BME280;6539;49.476;8.484;2024-02-23T02:36:07;98574.34;;;6.42;89.39
12949;BME280;6539;49.476;8.484;2024-02-23T02:38:53;98576.25;;;6.45;89.61
12949;BME280;6539;49.476;8.484;2024-02-23T02:41:39;98575.81;;;6.46;89.54
12949;BME280;6539;49.476;8.484;2024-02-23T02:44:26;98566.72;;;6.53;89.30
12949;BME280;6539;49.476;8.484;2024-02-23T02:47:21;98560.75;;;6.58;88.45
12949;BME280;6539;49.476;8.484;2024-02-23T02:50:07;98579.91;;;6.54;88.75
12949;BME280;6539;49.476;8.484;2024-02-23T02:52:54;98579.66;;;6.49;88.34
12949;BME280;6539;49.476;8.484;2024-02-23T02:55:42;98586.63;;;6.50;88.38
12949;BME280;6539;49.476;8.484;2024-02-23T02:58:28;98581.63;;;6.64;85.39
12949;BME280;6539;49.476;8.484;2024-02-23T03:01:14;98579.88;;;6.74;84.46
12949;BME280;6539;49.476;8.484;2024-02-23T03:04:03;98589.00;;;6.83;83.05
12949;BME280;6539;49.476;8.484;2024-02-23T03:06:49;98585.34;;;6.90;82.78
12949;BME280;6539;49.476;8.484;2024-02-23T03:09:36;98581.75;;;6.93;82.64
12949;BME280;6539;49.476;8.484;2024-02-23T03:12:22;98590.97;;;6.99;81.25
12949;BME280;6539;49.476;8.484;2024-02-23T03:15:08;98586.38;;;6.96;82.10
12949;BME280;6539;49.476;8.484;2024-02-23T03:17:56;98587.84;;;7.01;81.53
12949;BME280;6539;49.476;8.484;2024-02-23T03:20:43;98589.09;;;6.96;82.38
12949;BME280;6539;49.476;8.484;2024-02-23T03:23:32;98583.66;;;6.96;82.05
12949;BME280;6539;49.476;8.484;2024-02-23T03:30:19;98593.53;;;6.90;82.10
12949;BME280;6539;49.476;8.484;2024-02-23T03:33:05;98584.97;;;6.88;82.53
12949;BME280;6539;49.476;8.484;2024-02-23T03:35:54;98598.63;;;6.88;82.75
12949;BME280;6539;49.476;8.484;2024-02-23T03:38:41;98599.00;;;6.90;82.39
12949;BME280;6539;49.476;8.484;2024-02-23T03:41:27;98596.84;;;6.98;81.42
12949;BME280;6539;49.476;8.484;2024-02-23T03:44:13;98591.31;;;7.01;80.69
12949;BME280;6539;49.476;8.484;2024-02-23T03:46:59;98594.38;;;7.03;80.99
12949;BME280;6539;49.476;8.484;2024-02-23T03:49:45;98579.72;;;6.97;81.26
12949;BME280;6539;49.476;8.484;2024-02-23T03:52:31;98596.59;;;6.92;80.80
12949;BME280;6539;49.476;8.484;2024-02-23T03:55:17;98585.75;;;6.88;80.37
12949;BME280;6539;49.476;8.484;2024-02-23T03:58:03;98589.75;;;6.84;80.67
12949;BME280;6539;49.476;8.484;2024-02-23T04:00:50;98588.81;;;6.74;81.96
12949;BME280;6539;49.476;8.484;2024-02-23T04:03:39;98598.59;;;6.72;82.35
12949;BME280;6539;49.476;8.484;2024-02-23T04:06:26;98594.16;;;6.62;83.29
12949;BME280;6539;49.476;8.484;2024-02-23T04:09:14;98589.47;;;6.62;83.30
12949;BME280;6539;49.476;8.484;2024-02-23T04:12:00;98593.03;;;6.59;83.30
12949;BME280;6539;49.476;8.484;2024-02-23T04:14:46;98595.09;;;6.55;83.67
12949;BME280;6539;49.476;8.484;2024-02-23T04:17:33;98594.38;;;6.51;83.64
12949;BME280;6539;49.476;8.484;2024-02-23T04:20:19;98593.28;;;6.49;83.61
12949;BME280;6539;49.476;8.484;2024-02-23T04:23:05;98604.19;;;6.49;83.66
12949;BME280;6539;49.476;8.484;2024-02-23T04:25:55;98611.16;;;6.50;82.94
12949;BME280;6539;49.476;8.484;2024-02-23T04:28:42;98609.19;;;6.50;82.78
12949;BME280;6539;49.476;8.484;2024-02-23T04:31:28;98619.66;;;6.52;82.69
12949;BME280;6539;49.476;8.484;2024-02-23T04:34:17;98628.47;;;6.59;81.36
12949;BME280;6539;49.476;8.484;2024-02-23T04:37:05;98629.25;;;6.60;81.19
12949;BME280;6539;49.476;8.484;2024-02-23T04:39:52;98630.00;;;6.60;81.55
12949;BME280;6539;49.476;8.484;2024-02-23T04:42:38;98637.59;;;6.69;80.14
12949;BME280;6539;49.476;8.484;2024-02-23T04:45:24;98637.59;;;6.69;79.44
12949;BME280;6539;49.476;8.484;2024-02-23T04:48:10;98631.41;;;6.68;78.07
12949;BME280;6539;49.476;8.484;2024-02-23T04:51:02;98635.94;;;6.75;79.61
12949;BME280;6539;49.476;8.484;2024-02-23T04:53:48;98641.22;;;6.82;79.66
12949;BME280;6539;49.476;8.484;2024-02-23T04:56:34;98636.28;;;6.77;79.79
12949;BME280;6539;49.476;8.484;2024-02-23T04:59:20;98627.25;;;6.80;79.87
12949;BME280;6539;49.476;8.484;2024-02-23T05:02:06;98636.53;;;6.82;79.14
12949;BME280;6539;49.476;8.484;2024-02-23T05:04:52;98635.72;;;6.85;78.83
12949;BME280;6539;49.476;8.484;2024-02-23T05:07:38;98639.53;;;6.88;78.22
12949;BME280;6539;49.476;8.484;2024-02-23T05:10:24;98638.34;;;6.89;78.24
12949;BME280;6539;49.476;8.484;2024-02-23T05:13:14;98631.72;;;6.90;78.54
12949;BME280;6539;49.476;8.484;2024-02-23T05:16:03;98619.59;;;6.91;78.11
12949;BME280;6539;49.476;8.484;2024-02-23T05:18:49;98625.50;;;6.89;78.57
12949;BME280;6539;49.476;8.484;2024-02-23T05:21:37;98614.41;;;6.97;82.94
12949;BME280;6539;49.476;8.484;2024-02-23T05:24:24;98621.84;;;6.96;78.72
12949;BME280;6539;49.476;8.484;2024-02-23T05:27:12;98623.88;;;6.92;78.59
12949;BME280;6539;49.476;8.484;2024-02-23T05:29:58;98623.53;;;6.90;78.58
12949;BME280;6539;49.476;8.484;2024-02-23T05:32:44;98632.56;;;6.87;78.68
12949;BME280;6539;49.476;8.484;2024-02-23T05:35:30;98631.72;;;6.90;79.41
12949;BME280;6539;49.476;8.484;2024-02-23T05:38:16;98636.75;;;6.91;79.62
12949;BME280;6539;49.476;8.484;2024-02-23T05:41:03;98640.94;;;6.96;79.59
12949;BME280;6539;49.476;8.484;2024-02-23T05:43:51;98642.03;;;6.99;79.87
12949;BME280;6539;49.476;8.484;2024-02-23T05:46:39;98648.25;;;6.99;79.77
12949;BME280;6539;49.476;8.484;2024-02-23T05:49:28;98657.28;;;6.96;79.79
12949;BME280;6539;49.476;8.484;2024-02-23T05:52:14;98652.59;;;6.97;80.03
12949;BME280;6539;49.476;8.484;2024-02-23T05:55:01;98657.28;;;6.96;79.96
12949;BME280;6539;49.476;8.484;2024-02-23T05:57:47;98654.91;;;6.98;79.98
12949;BME280;6539;49.476;8.484;2024-02-23T06:00:36;98665.38;;;7.00;79.51
12949;BME280;6539;49.476;8.484;2024-02-23T06:03:22;98672.66;;;7.06;81.58
12949;BME280;6539;49.476;8.484;2024-02-23T06:06:10;98679.66;;;7.07;80.22
12949;BME280;6539;49.476;8.484;2024-02-23T06:08:59;98685.78;;;7.11;79.82
12949;BME280;6539;49.476;8.484;2024-02-23T06:11:48;98689.56;;;7.17;80.48
12949;BME280;6539;49.476;8.484;2024-02-23T06:14:36;98694.19;;;7.20;80.36
12949;BME280;6539;49.476;8.484;2024-02-23T06:17:23;98700.31;;;7.24;79.52
12949;BME280;6539;49.476;8.484;2024-02-23T06:20:14;98699.88;;;7.26;79.27
12949;BME280;6539;49.476;8.484;2024-02-23T06:23:02;98694.19;;;7.20;79.00
12949;BME280;6539;49.476;8.484;2024-02-23T06:25:50;98698.84;;;7.20;78.76
12949;BME280;6539;49.476;8.484;2024-02-23T06:28:41;98703.69;;;7.12;78.85
12949;BME280;6539;49.476;8.484;2024-02-23T06:31:30;98699.78;;;7.13;79.27
12949;BME280;6539;49.476;8.484;2024-02-23T06:34:19;98700.19;;;7.12;79.46
12949;BME280;6539;49.476;8.484;2024-02-23T06:37:05;98708.78;;;7.10;78.72
12949;BME280;6539;49.476;8.484;2024-02-23T06:39:53;98705.47;;;7.03;78.90
12949;BME280;6539;49.476;8.484;2024-02-23T06:42:42;98707.00;;;7.04;79.54
12949;BME280;6539;49.476;8.484;2024-02-23T06:45:31;98711.31;;;7.01;78.47
12949;BME280;6539;49.476;8.484;2024-02-23T06:48:17;98715.69;;;6.99;78.49
12949;BME280;6539;49.476;8.484;2024-02-23T06:51:09;98719.59;;;6.98;78.50
12949;BME280;6539;49.476;8.484;2024-02-23T06:54:00;98703.66;;;6.96;76.84
12949;BME280;6539;49.476;8.484;2024-02-23T06:56:46;98713.03;;;6.95;77.27
12949;BME280;6539;49.476;8.484;2024-02-23T06:59:32;98705.69;;;6.92;77.32
12949;BME280;6539;49.476;8.484;2024-02-23T07:02:21;98707.31;;;6.89;77.01
12949;BME280;6539;49.476;8.484;2024-02-23T07:05:07;98707.34;;;6.86;77.26
12949;BME280;6539;49.476;8.484;2024-02-23T07:07:54;98702.34;;;6.84;77.08
12949;BME280;6539;49.476;8.484;2024-02-23T07:10:40;98716.41;;;6.83;75.96
12949;BME280;6539;49.476;8.484;2024-02-23T07:13:29;98712.13;;;6.82;76.43
12949;BME280;6539;49.476;8.484;2024-02-23T07:16:15;98712.47;;;6.84;76.18
12949;BME280;6539;49.476;8.484;2024-02-23T07:19:04;98716.06;;;6.81;76.06
12949;BME280;6539;49.476;8.484;2024-02-23T07:21:53;98712.91;;;6.82;76.48
12949;BME280;6539;49.476;8.484;2024-02-23T07:24:44;98711.44;;;6.78;75.85
12949;BME280;6539;49.476;8.484;2024-02-23T07:27:33;98710.66;;;6.77;75.49
12949;BME280;6539;49.476;8.484;2024-02-23T07:30:19;98711.16;;;6.72;75.82
12949;BME280;6539;49.476;8.484;2024-02-23T07:33:05;98712.69;;;6.73;75.30
12949;BME280;6539;49.476;8.484;2024-02-23T07:35:51;98719.00;;;6.70;75.37
12949;BME280;6539;49.476;8.484;2024-02-23T07:38:40;98725.91;;;6.75;75.14
12949;BME280;6539;49.476;8.484;2024-02-23T07:41:26;98720.47;;;6.75;75.55
12949;BME280;6539;49.476;8.484;2024-02-23T07:44:12;98717.56;;;6.82;74.74
12949;BME280;6539;49.476;8.484;2024-02-23T07:46:58;98707.53;;;6.79;73.95
12949;BME280;6539;49.476;8.484;2024-02-23T07:49:45;98711.28;;;6.85;73.43
12949;BME280;6539;49.476;8.484;2024-02-23T07:52:36;98714.72;;;6.89;73.57
12949;BME280;6539;49.476;8.484;2024-02-23T07:55:22;98716.44;;;6.99;72.72
12949;BME280;6539;49.476;8.484;2024-02-23T07:58:08;98711.38;;;7.17;72.38
12949;BME280;6539;49.476;8.484;2024-02-23T08:00:54;98715.75;;;7.31;70.47
12949;BME280;6539;49.476;8.484;2024-02-23T08:03:41;98727.09;;;7.29;70.12
12949;BME280;6539;49.476;8.484;2024-02-23T08:06:30;98732.41;;;7.36;69.70
12949;BME280;6539;49.476;8.484;2024-02-23T08:09:16;98738.09;;;7.42;69.07
12949;BME280;6539;49.476;8.484;2024-02-23T08:12:06;98729.50;;;7.43;68.22
12949;BME280;6539;49.476;8.484;2024-02-23T08:14:55;98740.16;;;7.38;68.56
12949;BME280;6539;49.476;8.484;2024-02-23T08:17:41;98735.13;;;7.36;68.58
12949;BME280;6539;49.476;8.484;2024-02-23T08:20:27;98738.19;;;7.38;68.61
12949;BME280;6539;49.476;8.484;2024-02-23T08:23:13;98747.94;;;7.39;68.82
12949;BME280;6539;49.476;8.484;2024-02-23T08:25:59;98742.28;;;7.46;68.48
12949;BME280;6539;49.476;8.484;2024-02-23T08:28:48;98742.81;;;7.41;68.63
12949;BME280;6539;49.476;8.484;2024-02-23T08:31:34;98755.78;;;7.53;68.24
12949;BME280;6539;49.476;8.484;2024-02-23T08:34:20;98746.41;;;7.54;68.85
12949;BME280;6539;49.476;8.484;2024-02-23T08:37:09;98748.63;;;7.59;68.69
12949;BME280;6539;49.476;8.484;2024-02-23T08:40:00;98741.13;;;7.63;68.34
12949;BME280;6539;49.476;8.484;2024-02-23T08:42:47;98739.09;;;7.67;68.89
12949;BME280;6539;49.476;8.484;2024-02-23T08:45:35;98744.38;;;7.75;68.64
12949;BME280;6539;49.476;8.484;2024-02-23T08:48:21;98738.75;;;7.82;67.92
12949;BME280;6539;49.476;8.484;2024-02-23T08:51:07;98735.50;;;7.87;68.13
12949;BME280;6539;49.476;8.484;2024-02-23T08:53:53;98740.72;;;7.97;67.24
12949;BME280;6539;49.476;8.484;2024-02-23T08:56:43;98732.34;;;8.04;66.67
12949;BME280;6539;49.476;8.484;2024-02-23T08:59:29;98731.81;;;8.09;66.79
12949;BME280;6539;49.476;8.484;2024-02-23T09:02:15;98727.78;;;8.14;67.14
12949;BME280;6539;49.476;8.484;2024-02-23T09:05:05;98731.88;;;8.22;66.81
12949;BME280;6539;49.476;8.484;2024-02-23T09:07:51;98719.59;;;8.30;66.01
12949;BME280;6539;49.476;8.484;2024-02-23T09:10:37;98720.53;;;8.23;66.77
12949;BME280;6539;49.476;8.484;2024-02-23T09:13:29;98719.31;;;8.24;66.14
12949;BME280;6539;49.476;8.484;2024-02-23T09:16:17;98722.81;;;8.25;66.79
12949;BME280;6539;49.476;8.484;2024-02-23T09:19:04;98716.41;;;8.15;66.64
12949;BME280;6539;49.476;8.484;2024-02-23T09:21:50;98707.81;;;8.17;66.99
12949;BME280;6539;49.476;8.484;2024-02-23T09:24:42;98703.53;;;8.16;66.64
12949;BME280;6539;49.476;8.484;2024-02-23T09:27:28;98696.34;;;8.22;67.02
12949;BME280;6539;49.476;8.484;2024-02-23T09:30:14;98693.34;;;8.32;66.63
12949;BME280;6539;49.476;8.484;2024-02-23T09:33:00;98694.09;;;8.49;65.41
12949;BME280;6539;49.476;8.484;2024-02-23T09:35:49;98690.41;;;8.56;65.41
12949;BME280;6539;49.476;8.484;2024-02-23T09:38:39;98701.91;;;8.76;64.93
12949;BME280;6539;49.476;8.484;2024-02-23T09:41:25;98707.84;;;8.87;64.56
12949;BME280;6539;49.476;8.484;2024-02-23T09:44:13;98702.53;;;9.08;63.32
12949;BME280;6539;49.476;8.484;2024-02-23T09:47:02;98704.19;;;9.44;62.65
12949;BME280;6539;49.476;8.484;2024-02-23T09:49:56;98704.63;;;9.67;61.03
12949;BME280;6539;49.476;8.484;2024-02-23T09:52:42;98700.66;;;9.81;61.10
12949;BME280;6539;49.476;8.484;2024-02-23T09:55:28;98694.34;;;10.18;60.05
12949;BME280;6539;49.476;8.484;2024-02-23T09:58:21;98698.63;;;10.19;60.19
12949;BME280;6539;49.476;8.484;2024-02-23T10:01:08;98700.34;;;10.26;59.71
12949;BME280;6539;49.476;8.484;2024-02-23T10:04:01;98712.97;;;10.23;59.94
12949;BME280;6539;49.476;8.484;2024-02-23T10:06:52;98701.25;;;10.10;60.02
12949;BME280;6539;49.476;8.484;2024-02-23T10:09:38;98696.44;;;10.02;60.20
12949;BME280;6539;49.476;8.484;2024-02-23T10:12:24;98696.78;;;10.38;59.95
12949;BME280;6539;49.476;8.484;2024-02-23T10:15:10;98694.19;;;11.30;56.59
12949;BME280;6539;49.476;8.484;2024-02-23T10:17:56;98699.09;;;11.44;55.60
12949;BME280;6539;49.476;8.484;2024-02-23T10:20:42;98711.19;;;11.46;55.68
12949;BME280;6539;49.476;8.484;2024-02-23T10:23:29;98687.38;;;11.52;54.59
12949;BME280;6539;49.476;8.484;2024-02-23T10:26:15;98690.56;;;11.42;55.11
12949;BME280;6539;49.476;8.484;2024-02-23T10:29:06;98689.16;;;11.68;54.61
12949;BME280;6539;49.476;8.484;2024-02-23T10:31:57;98691.06;;;12.16;53.09
12949;BME280;6539;49.476;8.484;2024-02-23T10:34:47;98691.63;;;11.84;53.73
12949;BME280;6539;49.476;8.484;2024-02-23T10:37:36;98698.06;;;11.90;53.82
12949;BME280;6539;49.476;8.484;2024-02-23T10:40:24;98691.69;;;12.11;53.43
12949;BME280;6539;49.476;8.484;2024-02-23T10:43:19;98686.41;;;11.68;54.93
12949;BME280;6539;49.476;8.484;2024-02-23T10:46:07;98682.09;;;11.67;54.32
12949;BME280;6539;49.476;8.484;2024-02-23T10:48:59;98676.25;;;11.56;55.45
12949;BME280;6539;49.476;8.484;2024-02-23T10:51:49;98676.50;;;11.40;55.81
12949;BME280;6539;49.476;8.484;2024-02-23T10:54:39;98667.94;;;11.38;56.29
12949;BME280;6539;49.476;8.484;2024-02-23T10:57:27;98668.44;;;11.06;56.81
12949;BME280;6539;49.476;8.484;2024-02-23T11:00:14;98668.88;;;10.52;57.48
12949;BME280;6539;49.476;8.484;2024-02-23T11:03:02;98666.22;;;10.27;59.29
12949;BME280;6539;49.476;8.484;2024-02-23T11:05:49;98667.53;;;10.56;58.71
12949;BME280;6539;49.476;8.484;2024-02-23T11:08:41;98668.63;;;10.90;57.59
12949;BME280;6539;49.476;8.484;2024-02-23T11:11:32;98664.19;;;11.14;55.81
12949;BME280;6539;49.476;8.484;2024-02-23T11:14:36;98664.78;;;10.78;56.83
12949;BME280;6539;49.476;8.484;2024-02-23T11:17:22;98665.09;;;10.58;58.37
12949;BME280;6539;49.476;8.484;2024-02-23T11:20:15;98658.59;;;10.65;58.35
12949;BME280;6539;49.476;8.484;2024-02-23T11:23:01;98652.50;;;10.48;58.13
12949;BME280;6539;49.476;8.484;2024-02-23T11:26:13;98655.84;;;10.43;59.05
12949;BME280;6539;49.476;8.484;2024-02-23T11:29:11;98655.78;;;10.34;59.11
12949;BME280;6539;49.476;8.484;2024-02-23T11:31:58;98656.88;;;10.37;58.71
12949;BME280;6539;49.476;8.484;2024-02-23T11:35:01;98651.31;;;10.28;57.81
12949;BME280;6539;49.476;8.484;2024-02-23T11:40:53;98651.19;;;10.53;58.63
12949;BME280;6539;49.476;8.484;2024-02-23T11:43:42;98653.75;;;11.00;57.33
12949;BME280;6539;49.476;8.484;2024-02-23T11:46:33;98661.91;;;11.21;56.67
12949;BME280;6539;49.476;8.484;2024-02-23T11:49:19;98662.19;;;10.84;57.79
12949;BME280;6539;49.476;8.484;2024-02-23T11:52:06;98658.06;;;10.57;58.50
12949;BME280;6539;49.476;8.484;2024-02-23T11:54:52;98653.75;;;10.47;58.87
12949;BME280;6539;49.476;8.484;2024-02-23T11:57:41;98653.81;;;10.35;59.66
12949;BME280;6539;49.476;8.484;2024-02-23T12:00:29;98652.72;;;10.32;60.71
12949;BME280;6539;49.476;8.484;2024-02-23T12:03:16;98653.66;;;10.38;60.15
12949;BME280;6539;49.476;8.484;2024-02-23T12:06:06;98645.63;;;10.22;60.89
12949;BME280;6539;49.476;8.484;2024-02-23T12:08:52;98660.00;;;10.26;61.04
12949;BME280;6539;49.476;8.484;2024-02-23T12:11:39;98648.56;;;10.28;60.66
12949;BME280;6539;49.476;8.484;2024-02-23T12:14:25;98647.16;;;10.23;60.96
12949;BME280;6539;49.476;8.484;2024-02-23T12:17:16;98648.44;;;10.31;59.70
12949;BME280;6539;49.476;8.484;2024-02-23T12:20:07;98649.25;;;10.19;59.54
12949;BME280;6539;49.476;8.484;2024-02-23T12:22:55;98646.06;;;10.21;59.98
12949;BME280;6539;49.476;8.484;2024-02-23T12:25:59;98655.09;;;10.09;61.42
12949;BME280;6539;49.476;8.484;2024-02-23T12:28:49;98673.59;;;9.83;66.87
12949;BME280;6539;49.476;8.484;2024-02-23T12:31:37;98665.75;;;9.35;70.50
12949;BME280;6539;49.476;8.484;2024-02-23T12:34:25;98640.66;;;9.49;76.53
12949;BME280;6539;49.476;8.484;2024-02-23T12:37:15;98652.91;;;10.59;66.91
12949;BME280;6539;49.476;8.484;2024-02-23T12:40:02;98652.00;;;11.64;65.32
12949;BME280;6539;49.476;8.484;2024-02-23T12:42:48;98653.47;;;12.22;64.98
12949;BME280;6539;49.476;8.484;2024-02-23T12:45:38;98658.34;;;12.46;59.44
12949;BME280;6539;49.476;8.484;2024-02-23T12:48:27;98648.88;;;12.38;60.08
12949;BME280;6539;49.476;8.484;2024-02-23T12:51:13;98650.22;;;12.51;59.45
12949;BME280;6539;49.476;8.484;2024-02-23T12:54:00;98647.81;;;12.35;59.89
12949;BME280;6539;49.476;8.484;2024-02-23T12:56:46;98652.09;;;12.45;57.91
12949;BME280;6539;49.476;8.484;2024-02-23T12:59:35;98641.25;;;12.23;59.42
12949;BME280;6539;49.476;8.484;2024-02-23T13:02:21;98633.28;;;12.53;57.24
12949;BME280;6539;49.476;8.484;2024-02-23T13:05:10;98628.88;;;12.97;56.14
12949;BME280;6539;49.476;8.484;2024-02-23T13:07:56;98637.16;;;12.88;56.18
12949;BME280;6539;49.476;8.484;2024-02-23T13:10:42;98631.47;;;12.22;57.13
12949;BME280;6539;49.476;8.484;2024-02-23T13:13:30;98632.44;;;11.62;60.12
12949;BME280;6539;49.476;8.484;2024-02-23T13:16:20;98624.63;;;11.42;59.28
12949;BME280;6539;49.476;8.484;2024-02-23T13:19:06;98618.47;;;11.29;60.12
12949;BME280;6539;49.476;8.484;2024-02-23T13:21:52;98624.94;;;11.44;58.19
12949;BME280;6539;49.476;8.484;2024-02-23T13:24:40;98622.44;;;11.37;55.94
12949;BME280;6539;49.476;8.484;2024-02-23T13:27:26;98623.19;;;11.77;54.96
12949;BME280;6539;49.476;8.484;2024-02-23T13:30:18;98631.06;;;12.84;52.18
12949;BME280;6539;49.476;8.484;2024-02-23T13:33:04;98628.09;;;12.46;52.05
12949;BME280;6539;49.476;8.484;2024-02-23T13:35:54;98625.94;;;11.86;53.65
12949;BME280;6539;49.476;8.484;2024-02-23T13:38:43;98618.78;;;11.31;55.91
12949;BME280;6539;49.476;8.484;2024-02-23T13:41:29;98617.50;;;11.14;56.44
12949;BME280;6539;49.476;8.484;2024-02-23T13:44:15;98626.00;;;11.07;57.09
12949;BME280;6539;49.476;8.484;2024-02-23T13:47:01;98626.88;;;10.95;57.81
12949;BME280;6539;49.476;8.484;2024-02-23T13:49:47;98636.47;;;10.90;57.51
12949;BME280;6539;49.476;8.484;2024-02-23T13:52:37;98629.56;;;10.86;58.66
12949;BME280;6539;49.476;8.484;2024-02-23T13:55:23;98631.59;;;10.63;61.05
12949;BME280;6539;49.476;8.484;2024-02-23T13:58:10;98631.72;;;10.38;61.20
12949;BME280;6539;49.476;8.484;2024-02-23T14:00:56;98622.94;;;10.43;62.05
12949;BME280;6539;49.476;8.484;2024-02-23T14:03:42;98611.34;;;10.70;60.72
12949;BME280;6539;49.476;8.484;2024-02-23T14:06:33;98616.09;;;10.69;60.60
12949;BME280;6539;49.476;8.484;2024-02-23T14:09:19;98618.09;;;10.47;61.04
12949;BME280;6539;49.476;8.484;2024-02-23T14:12:05;98615.41;;;10.35;62.51
12949;BME280;6539;49.476;8.484;2024-02-23T14:14:52;98607.56;;;10.24;63.02
12949;BME280;6539;49.476;8.484;2024-02-23T14:17:38;98607.50;;;10.15;63.94
12949;BME280;6539;49.476;8.484;2024-02-23T14:20:24;98609.78;;;10.17;64.17
12949;BME280;6539;49.476;8.484;2024-02-23T14:23:14;98615.34;;;10.26;66.54
12949;BME280;6539;49.476;8.484;2024-02-23T14:26:00;98604.25;;;9.95;68.79
12949;BME280;6539;49.476;8.484;2024-02-23T14:28:49;98590.66;;;9.70;71.57
12949;BME280;6539;49.476;8.484;2024-02-23T14:31:38;98576.94;;;9.70;70.65
12949;BME280;6539;49.476;8.484;2024-02-23T14:34:30;98567.13;;;9.81;68.73
12949;BME280;6539;49.476;8.484;2024-02-23T14:37:18;98574.56;;;9.93;69.02
12949;BME280;6539;49.476;8.484;2024-02-23T14:40:07;98569.59;;;10.01;68.51
12949;BME280;6539;49.476;8.484;2024-02-23T14:42:57;98573.53;;;10.00;69.23
12949;BME280;6539;49.476;8.484;2024-02-23T14:45:44;98575.38;;;10.03;68.84
12949;BME280;6539;49.476;8.484;2024-02-23T14:48:31;98578.41;;;9.96;70.02
12949;BME280;6539;49.476;8.484;2024-02-23T14:51:19;98577.34;;;10.15;71.60
12949;BME280;6539;49.476;8.484;2024-02-23T14:54:05;98581.72;;;10.34;69.78
12949;BME280;6539;49.476;8.484;2024-02-23T14:56:52;98582.31;;;10.29;70.91
12949;BME280;6539;49.476;8.484;2024-02-23T14:59:40;98582.91;;;10.24;71.77
12949;BME280;6539;49.476;8.484;2024-02-23T15:02:32;98581.75;;;10.13;69.20
12949;BME280;6539;49.476;8.484;2024-02-23T15:05:18;98575.13;;;10.10;68.91
12949;BME280;6539;49.476;8.484;2024-02-23T15:08:06;98573.09;;;10.02;68.36
12949;BME280;6539;49.476;8.484;2024-02-23T15:10:53;98573.22;;;9.98;68.48
12949;BME280;6539;49.476;8.484;2024-02-23T15:13:40;98573.41;;;10.04;68.50
12949;BME280;6539;49.476;8.484;2024-02-23T15:16:28;98572.53;;;10.07;67.72